Time;durP1;ratioP1;P1;durP2;ratioP2;P2;SDS_P1;SDS_P2;PMS_P1;PMS_P2;Temp;Humidity;BMP_temperature;BMP_pressure;BME280_temperature;BME280_humidity;BME280_pressure;Samples;Min_cycle;Max_cycle;Signal;HPM_P1;HPM_P2
2022/08/24 00:01:31;;;;;;;24.52;21.85;;;;;;;19.19;100.00;101526.13;5213353;28;20491;-67
2022/08/24 00:04:03;;;;;;;25.17;22.48;;;;;;;19.11;100.00;101526.03;5213380;28;20550;-67
2022/08/24 00:06:34;;;;;;;26.25;22.42;;;;;;;19.09;100.00;101524.50;5208124;28;20463;-67
2022/08/24 00:09:05;;;;;;;25.30;22.60;;;;;;;19.17;100.00;101521.84;5203832;28;20057;-69
2022/08/24 00:11:37;;;;;;;26.17;22.48;;;;;;;19.05;100.00;101521.25;5208541;28;20039;-67
2022/08/24 00:14:10;;;;;;;25.55;22.80;;;;;;;19.06;100.00;101522.97;5203194;28;20064;-66
2022/08/24 00:16:41;;;;;;;24.40;22.10;;;;;;;18.99;100.00;101528.16;5202121;28;20037;-67
2022/08/24 00:19:12;;;;;;;25.20;22.60;;;;;;;18.99;100.00;101536.25;5203226;28;20500;-68
2022/08/24 00:21:44;;;;;;;27.23;23.48;;;;;;;18.98;100.00;101540.00;5202260;28;21133;-67
2022/08/24 00:24:15;;;;;;;25.88;23.10;;;;;;;18.93;100.00;101530.63;5201558;28;20030;-67
2022/08/24 00:26:47;;;;;;;27.08;24.00;;;;;;;18.88;100.00;101528.38;5202901;28;20389;-67
2022/08/24 00:29:20;;;;;;;26.02;23.40;;;;;;;18.83;100.00;101529.84;5201944;28;20446;-66
2022/08/24 00:31:52;;;;;;;25.40;22.73;;;;;;;18.82;100.00;101539.81;5198476;28;20034;-66
2022/08/24 00:34:24;;;;;;;27.17;24.35;;;;;;;18.77;100.00;101547.50;5201393;28;20404;-67
2022/08/24 00:36:55;;;;;;;27.10;24.20;;;;;;;18.77;100.00;101537.56;5203635;28;20030;-67
2022/08/24 00:39:27;;;;;;;26.67;24.08;;;;;;;18.74;100.00;101553.25;5201634;28;20472;-68
2022/08/24 00:41:59;;;;;;;26.35;23.25;;;;;;;18.74;100.00;101545.97;5206711;28;20092;-66
2022/08/24 00:44:30;;;;;;;25.85;23.27;;;;;;;18.70;100.00;101541.03;5205545;28;20049;-67
2022/08/24 00:47:11;;;;;;;27.15;24.48;;;;;;;18.65;100.00;101541.47;5206234;28;20185;-67
2022/08/24 00:49:58;;;;;;;29.52;26.42;;;;;;;18.66;100.00;101543.19;5201334;28;20994;-66
2022/08/24 00:52:34;;;;;;;28.38;25.58;;;;;;;18.59;100.00;101548.34;5195239;28;20057;-67
2022/08/24 00:55:16;;;;;;;27.30;24.48;;;;;;;18.66;100.00;101550.44;5203643;28;20033;-66
2022/08/24 00:57:50;;;;;;;26.95;24.05;;;;;;;18.56;100.00;101551.38;5202713;28;20125;-68
2022/08/24 01:00:25;;;;;;;28.13;24.80;;;;;;;18.54;100.00;101557.91;5200803;28;20029;-68
2022/08/24 01:03:03;;;;;;;27.73;24.92;;;;;;;18.56;100.00;101551.38;5214680;28;20032;-67
2022/08/24 01:05:36;;;;;;;27.70;24.83;;;;;;;18.56;100.00;101550.50;5195927;28;20436;-67
2022/08/24 01:08:10;;;;;;;28.05;25.08;;;;;;;18.48;100.00;101559.38;5212186;28;20030;-66
2022/08/24 01:10:46;;;;;;;29.70;26.60;;;;;;;18.47;100.00;101554.13;5211967;28;20424;-67
2022/08/24 01:13:18;;;;;;;29.52;26.35;;;;;;;18.44;100.00;101549.03;5206140;28;20055;-67
2022/08/24 01:15:52;;;;;;;31.65;27.02;;;;;;;18.38;100.00;101545.06;5196881;28;20777;-67
2022/08/24 01:21:28;;;;;;;31.65;26.08;;;;;;;18.44;100.00;101544.47;5206825;28;20065;-68
2022/08/24 01:24:02;;;;;;;28.67;25.70;;;;;;;18.36;100.00;101552.47;5208065;28;20040;-67
2022/08/24 01:26:47;;;;;;;29.80;26.90;;;;;;;18.34;100.00;101549.94;5208590;28;20033;-69
2022/08/24 01:29:24;;;;;;;29.77;26.73;;;;;;;18.34;100.00;101551.78;5215510;28;20026;-67
2022/08/24 01:31:55;;;;;;;30.02;26.73;;;;;;;18.33;100.00;101550.94;5218075;28;20065;-67
2022/08/24 01:34:26;;;;;;;28.83;25.38;;;;;;;18.39;100.00;101552.19;5213661;28;20234;-67
2022/08/24 01:36:59;;;;;;;29.52;26.35;;;;;;;18.28;100.00;101547.00;5207084;28;20480;-67
2022/08/24 01:39:34;;;;;;;29.35;26.35;;;;;;;18.25;100.00;101550.81;5211109;28;20040;-67
2022/08/24 01:42:06;;;;;;;30.67;26.92;;;;;;;18.29;100.00;101535.16;5205249;28;20037;-67
2022/08/24 01:44:39;;;;;;;30.02;26.92;;;;;;;18.24;100.00;101532.94;5208546;28;20044;-67
2022/08/24 01:47:12;;;;;;;31.17;27.88;;;;;;;18.15;100.00;101536.53;5203422;28;20940;-67
2022/08/24 01:49:47;;;;;;;32.38;28.67;;;;;;;18.18;100.00;101533.53;5207214;28;20488;-67
2022/08/24 01:52:22;;;;;;;32.17;28.48;;;;;;;18.18;100.00;101531.69;5206438;28;20840;-67
2022/08/24 01:54:53;;;;;;;32.15;28.70;;;;;;;18.09;100.00;101537.97;5206670;28;20046;-67
2022/08/24 01:57:25;;;;;;;32.33;28.73;;;;;;;18.12;100.00;101543.09;5205612;28;20626;-67
2022/08/24 01:59:56;;;;;;;35.35;30.10;;;;;;;18.09;100.00;101532.59;5205249;28;20063;-67
2022/08/24 02:02:30;;;;;;;35.60;29.15;;;;;;;18.03;100.00;101539.44;5203105;28;20037;-67
2022/08/24 02:05:01;;;;;;;35.17;29.67;;;;;;;18.05;100.00;101528.47;5208726;28;20048;-67
2022/08/24 02:07:33;;;;;;;33.75;30.13;;;;;;;18.00;100.00;101530.78;5204019;28;20026;-67
2022/08/24 02:10:06;;;;;;;32.78;29.08;;;;;;;18.00;100.00;101533.47;5201558;28;20034;-67
2022/08/24 02:12:40;;;;;;;32.85;29.23;;;;;;;18.01;100.00;101533.31;5205344;28;20030;-67
2022/08/24 02:15:12;;;;;;;31.33;27.98;;;;;;;17.98;100.00;101539.00;5205817;28;20457;-67
2022/08/24 02:17:43;;;;;;;32.70;29.02;;;;;;;17.98;100.00;101528.22;5208132;28;20032;-67
2022/08/24 02:20:14;;;;;;;34.00;29.42;;;;;;;17.89;100.00;101537.22;5202088;28;20034;-66
2022/08/24 02:22:48;;;;;;;31.98;27.67;;;;;;;17.87;100.00;101535.66;5216750;28;20115;-67
2022/08/24 02:25:20;;;;;;;33.00;29.42;;;;;;;17.87;100.00;101539.19;5207205;28;20384;-67
2022/08/24 02:27:51;;;;;;;32.65;28.77;;;;;;;17.83;100.00;101544.03;5210014;28;20034;-66
2022/08/24 02:30:23;;;;;;;35.63;29.48;;;;;;;17.80;100.00;101549.72;5216307;28;20034;-66
2022/08/24 02:32:54;;;;;;;32.97;29.48;;;;;;;17.80;100.00;101556.97;5201146;28;20065;-67
2022/08/24 02:35:28;;;;;;;32.55;28.92;;;;;;;17.82;100.00;101554.97;5206063;28;20139;-67
2022/08/24 02:37:59;;;;;;;31.52;27.98;;;;;;;17.78;100.00;101546.31;5203165;28;20041;-66
2022/08/24 02:40:31;;;;;;;30.80;27.58;;;;;;;17.76;100.00;101553.72;5213782;28;20034;-66
2022/08/24 02:43:04;;;;;;;31.60;28.17;;;;;;;17.74;100.00;101550.31;5214224;28;20027;-68
2022/08/24 02:45:40;;;;;;;33.17;29.58;;;;;;;17.74;100.00;101549.47;5216168;28;20033;-67
2022/08/24 02:48:13;;;;;;;31.52;28.30;;;;;;;17.75;100.00;101554.69;5198839;28;20034;-67
2022/08/24 02:50:47;;;;;;;32.63;29.05;;;;;;;17.73;100.00;101558.56;5204401;28;20395;-67
2022/08/24 02:53:20;;;;;;;34.03;30.45;;;;;;;17.69;100.00;101557.16;5198322;28;20032;-67
2022/08/24 02:55:51;;;;;;;33.10;29.10;;;;;;;17.74;100.00;101560.28;5205655;28;20050;-67
2022/08/24 02:58:23;;;;;;;32.30;28.85;;;;;;;17.71;100.00;101552.47;5208292;28;20771;-67
2022/08/24 03:00:54;;;;;;;31.67;28.33;;;;;;;17.62;100.00;101554.16;5205383;28;20030;-67
2022/08/24 03:03:25;;;;;;;34.15;30.45;;;;;;;17.63;100.00;101551.34;5208462;28;20068;-67
2022/08/24 03:05:57;;;;;;;32.08;28.73;;;;;;;17.56;100.00;101550.22;5205994;28;20036;-67
2022/08/24 03:08:28;;;;;;;32.20;28.75;;;;;;;17.60;100.00;101548.06;5210586;28;20049;-67
2022/08/24 03:11:00;;;;;;;32.95;29.05;;;;;;;17.60;100.00;101548.94;5214630;28;20034;-67
2022/08/24 03:13:31;;;;;;;32.42;28.52;;;;;;;17.52;100.00;101545.25;5205659;28;20030;-67
2022/08/24 03:16:04;;;;;;;32.90;28.38;;;;;;;17.49;100.00;101549.09;5201518;28;20283;-67
2022/08/24 03:18:35;;;;;;;32.97;29.48;;;;;;;17.44;100.00;101541.44;5206817;28;20075;-68
2022/08/24 03:21:06;;;;;;;32.00;28.60;;;;;;;17.51;100.00;101544.41;5218745;28;20224;-67
2022/08/24 03:23:38;;;;;;;33.42;29.63;;;;;;;17.49;100.00;101546.41;5205122;28;20169;-67
2022/08/24 03:26:09;;;;;;;30.92;27.83;;;;;;;17.50;100.00;101547.25;5202191;28;20034;-67
2022/08/24 03:28:41;;;;;;;31.83;28.52;;;;;;;17.43;100.00;101546.97;5204400;28;20022;-67
2022/08/24 03:31:12;;;;;;;30.48;27.25;;;;;;;17.42;100.00;101551.53;5231209;28;20044;-67
2022/08/24 03:33:43;;;;;;;30.77;27.48;;;;;;;17.47;100.00;101547.53;5198602;28;20093;-67
2022/08/24 03:36:15;;;;;;;30.60;27.30;;;;;;;17.41;100.00;101543.56;5201654;28;20044;-67
2022/08/24 03:38:46;;;;;;;31.27;28.05;;;;;;;17.40;100.00;101542.72;5203357;28;20464;-67
2022/08/24 03:41:17;;;;;;;30.20;27.05;;;;;;;17.39;100.00;101541.03;5202219;28;20029;-67
2022/08/24 03:43:49;;;;;;;30.63;27.45;;;;;;;17.39;100.00;101535.66;5212789;28;20220;-67
2022/08/24 03:46:26;;;;;;;34.28;29.38;;;;;;;17.33;100.00;101543.44;5201081;28;20518;-67
2022/08/24 03:48:58;;;;;;;31.40;28.00;;;;;;;17.34;100.00;101537.91;5211345;28;20474;-67
2022/08/24 03:51:29;;;;;;;31.75;28.38;;;;;;;17.33;100.00;101541.59;5200548;28;20091;-67
2022/08/24 03:54:01;;;;;;;36.58;30.02;;;;;;;17.32;100.00;101550.69;5217702;28;20500;-67
2022/08/24 03:56:34;;;;;;;31.75;28.35;;;;;;;17.33;100.00;101544.28;5205239;28;20030;-67
2022/08/24 03:59:06;;;;;;;32.80;29.02;;;;;;;17.25;100.00;101544.16;5201826;28;20033;-68
2022/08/24 04:01:38;;;;;;;31.38;28.00;;;;;;;17.23;100.00;101540.78;5204917;28;20038;-68
2022/08/24 04:04:09;;;;;;;30.70;27.63;;;;;;;17.26;100.00;101540.50;5201529;28;20126;-67
2022/08/24 04:06:43;;;;;;;31.45;28.05;;;;;;;17.23;100.00;101541.63;5205644;28;20026;-67
2022/08/24 04:09:15;;;;;;;32.00;27.80;;;;;;;17.23;100.00;101547.00;5201972;28;20034;-68
2022/08/24 04:11:46;;;;;;;30.98;27.65;;;;;;;17.19;100.00;101552.84;5203931;28;20460;-67
2022/08/24 04:14:21;;;;;;;32.08;28.67;;;;;;;17.18;100.00;101543.03;5201844;28;20026;-67
2022/08/24 04:16:52;;;;;;;32.67;29.15;;;;;;;17.14;100.00;101550.56;5204820;28;20022;-67
2022/08/24 04:19:23;;;;;;;30.92;27.73;;;;;;;17.16;100.00;101545.03;5201402;28;20025;-67
2022/08/24 04:21:57;;;;;;;34.40;28.38;;;;;;;17.10;100.00;101549.16;5201836;28;20438;-66
2022/08/24 04:24:29;;;;;;;;;;;;;;;17.21;100.00;101550.84;5206967;28;20029;-66
2022/08/24 04:27:00;;;;;;;31.50;28.10;;;;;;;17.08;100.00;101553.84;5200226;28;19924;-67
2022/08/24 04:29:32;;;;;;;32.55;27.73;;;;;;;17.04;100.00;101552.41;5206094;28;20097;-67
2022/08/24 04:32:03;;;;;;;32.42;28.52;;;;;;;17.08;100.00;101553.84;5206671;28;20033;-66
2022/08/24 04:34:35;;;;;;;31.58;27.48;;;;;;;17.04;100.00;101558.66;5203300;28;20380;-67
2022/08/24 04:37:06;;;;;;;31.90;28.40;;;;;;;17.02;100.00;101551.72;5201351;28;20029;-67
2022/08/24 04:39:38;;;;;;;31.17;27.35;;;;;;;17.09;100.00;101560.09;5203911;28;20033;-67
2022/08/24 04:42:10;;;;;;;31.63;28.00;;;;;;;17.01;100.00;101560.81;5200949;28;20030;-67
2022/08/24 04:44:42;;;;;;;31.30;27.20;;;;;;;16.99;100.00;101560.06;5204482;28;20064;-66
2022/08/24 04:47:13;;;;;;;32.28;28.75;;;;;;;17.01;100.00;101560.81;5208178;28;20050;-67
2022/08/24 04:49:44;;;;;;;31.45;27.67;;;;;;;16.98;100.00;101563.78;5206566;28;20148;-67
2022/08/24 04:52:15;;;;;;;32.88;27.80;;;;;;;17.02;100.00;101567.88;5208145;28;20033;-66
2022/08/24 04:54:47;;;;;;;31.98;28.67;;;;;;;16.99;100.00;101563.63;5210209;28;20037;-66
2022/08/24 04:57:18;;;;;;;33.53;29.45;;;;;;;16.95;100.00;101561.34;5209419;28;20030;-66
2022/08/24 04:59:49;;;;;;;36.75;30.63;;;;;;;16.98;100.00;101566.47;5205871;28;20026;-66
2022/08/24 05:02:21;;;;;;;33.60;28.65;;;;;;;16.98;100.00;101570.00;5206129;28;21363;-67
2022/08/24 05:04:55;;;;;;;32.97;29.10;;;;;;;17.00;100.00;101572.56;5208203;28;20527;-67
2022/08/24 05:07:28;;;;;;;33.63;29.90;;;;;;;16.98;100.00;101569.16;5206296;28;20057;-67
2022/08/24 05:10:00;;;;;;;33.63;29.30;;;;;;;17.02;100.00;101570.59;5210553;28;20525;-67
2022/08/24 05:12:32;;;;;;;36.38;29.75;;;;;;;17.02;100.00;101571.44;5217288;28;20041;-67
2022/08/24 05:15:04;;;;;;;34.47;29.08;;;;;;;17.05;100.00;101573.84;5214018;27;20169;-67
2022/08/24 05:17:35;;;;;;;35.00;28.73;;;;;;;17.00;100.00;101573.41;5210242;28;20384;-67
2022/08/24 05:20:08;;;;;;;34.25;29.70;;;;;;;17.04;100.00;101574.84;5209840;28;20049;-67
2022/08/24 05:22:39;;;;;;;32.28;28.60;;;;;;;17.08;100.00;101574.56;5208727;28;20033;-67
2022/08/24 05:25:10;;;;;;;34.03;29.05;;;;;;;17.07;100.00;101572.84;5213142;28;20037;-67
2022/08/24 05:27:42;;;;;;;32.50;28.90;;;;;;;17.12;100.00;101581.38;5211925;28;20050;-68
2022/08/24 05:30:14;;;;;;;32.70;29.10;;;;;;;17.13;100.00;101575.00;5215051;28;20033;-68
2022/08/24 05:32:45;;;;;;;32.08;28.27;;;;;;;17.17;100.00;101581.81;5213548;28;20082;-68
2022/08/24 05:35:17;;;;;;;30.33;27.02;;;;;;;17.15;100.00;101583.78;5215248;28;20018;-68
2022/08/24 05:37:48;;;;;;;32.30;28.40;;;;;;;17.16;100.00;101585.47;5214738;28;20392;-67
2022/08/24 05:40:19;;;;;;;32.53;29.08;;;;;;;17.21;100.00;101592.16;5216216;28;20481;-68
2022/08/24 05:42:51;;;;;;;31.67;28.33;;;;;;;17.22;100.00;101585.78;5212602;28;20080;-67
2022/08/24 05:45:23;;;;;;;33.60;29.15;;;;;;;17.23;100.00;101584.75;5238700;28;20293;-68
2022/08/24 05:47:54;;;;;;;34.10;29.23;;;;;;;17.23;100.00;101583.91;5237025;28;20041;-68
2022/08/24 05:50:26;;;;;;;32.63;29.02;;;;;;;17.27;100.00;101588.03;5217383;28;20050;-67
2022/08/24 05:52:58;;;;;;;35.20;30.73;;;;;;;17.32;100.00;101580.38;5204950;28;20056;-67
2022/08/24 05:55:29;;;;;;;36.97;32.38;;;;;;;17.36;100.00;101578.25;5207492;28;20041;-67
2022/08/24 05:58:01;;;;;;;37.67;33.67;;;;;;;17.38;100.00;101595.97;5207430;28;20112;-67
2022/08/24 06:00:32;;;;;;;37.58;33.55;;;;;;;17.40;100.00;101587.75;5241228;28;20380;-68
2022/08/24 06:03:03;;;;;;;41.78;33.88;;;;;;;17.45;100.00;101588.16;5210133;28;20045;-68
2022/08/24 06:05:41;;;;;;;38.30;33.88;;;;;;;17.46;100.00;101587.16;5209230;28;20057;-68
2022/08/24 06:08:12;;;;;;;40.47;35.33;;;;;;;17.52;100.00;101583.88;5210027;28;20061;-67
2022/08/24 06:10:48;;;;;;;39.15;34.78;;;;;;;17.56;100.00;101590.69;5226749;28;20420;-68
2022/08/24 06:13:20;;;;;;;41.17;36.72;;;;;;;17.60;100.00;101591.25;5220981;28;20112;-67
2022/08/24 06:16:02;;;;;;;42.83;36.70;;;;;;;17.63;100.00;101597.22;5219616;28;20035;-67
2022/08/24 06:18:34;;;;;;;39.67;35.47;;;;;;;17.67;100.00;101605.03;5209781;28;20398;-67
2022/08/24 06:21:09;;;;;;;44.83;36.70;;;;;;;17.69;100.00;101609.28;5207526;28;20026;-68
2022/08/24 06:23:42;;;;;;;42.17;36.28;;;;;;;17.85;100.00;101597.03;5204840;28;20026;-67
2022/08/24 06:29:06;;;;;;;46.70;41.17;;;;;;;17.94;100.00;101610.50;5205204;28;20042;-67
2022/08/24 06:31:42;;;;;;;49.38;42.90;;;;;;;18.05;100.00;101617.59;5204587;28;20041;-67
2022/08/24 06:34:17;;;;;;;48.08;42.42;;;;;;;18.06;100.00;101611.19;5206257;28;20577;-67
2022/08/24 06:36:48;;;;;;;48.05;42.85;;;;;;;18.12;100.00;101615.13;5206095;28;20030;-68
2022/08/24 06:39:19;;;;;;;46.22;41.22;;;;;;;18.16;100.00;101613.84;5207609;28;20025;-68
2022/08/24 06:41:51;;;;;;;46.28;41.35;;;;;;;18.22;100.00;101618.69;5205199;28;20037;-67
2022/08/24 06:44:22;;;;;;;43.92;39.22;;;;;;;18.21;100.00;101623.22;5208289;28;20167;-67
2022/08/24 06:46:53;;;;;;;43.08;37.50;;;;;;;18.27;100.00;101632.56;5206524;28;20050;-67
2022/08/24 06:49:25;;;;;;;44.72;39.28;;;;;;;18.33;100.00;101621.19;5204386;28;20381;-67
2022/08/24 06:51:56;;;;;;;42.28;37.20;;;;;;;18.36;100.00;101626.28;5203258;28;20380;-67
2022/08/24 06:54:27;;;;;;;45.63;40.72;;;;;;;18.49;100.00;101623.25;5205927;28;20034;-67
2022/08/24 06:56:58;;;;;;;42.70;37.88;;;;;;;18.48;100.00;101621.53;5207568;28;20109;-67
2022/08/24 06:59:31;;;;;;;40.92;36.47;;;;;;;18.63;100.00;101629.13;5207061;28;20071;-67
2022/08/24 07:02:02;;;;;;;41.30;36.85;;;;;;;18.76;100.00;101632.34;5205194;28;20155;-67
2022/08/24 07:04:33;;;;;;;44.55;38.33;;;;;;;18.88;100.00;101630.28;5207404;28;20037;-67
2022/08/24 07:07:05;;;;;;;45.40;39.78;;;;;;;19.02;100.00;101627.03;5208112;28;20049;-67
2022/08/24 07:09:36;;;;;;;42.35;37.75;;;;;;;19.04;100.00;101640.41;5204273;28;20026;-67
2022/08/24 07:12:08;;;;;;;36.42;32.00;;;;;;;19.14;100.00;101636.66;5208219;28;20104;-67
2022/08/24 07:14:39;;;;;;;38.65;34.55;;;;;;;19.43;100.00;101638.25;5200498;28;20037;-67
2022/08/24 07:17:10;;;;;;;38.13;32.72;;;;;;;19.58;100.00;101634.00;5209883;28;20033;-67
2022/08/24 07:19:41;;;;;;;38.75;31.55;;;;;;;19.82;100.00;101629.78;5210082;28;20116;-67
2022/08/24 07:22:13;;;;;;;32.25;28.08;;;;;;;19.70;100.00;101644.56;5210318;28;20030;-67
2022/08/24 07:24:45;;;;;;;33.13;28.15;;;;;;;20.13;100.00;101646.38;5208806;28;20045;-67
2022/08/24 07:27:16;;;;;;;32.80;27.90;;;;;;;20.26;100.00;101642.41;5210046;28;20049;-67
2022/08/24 07:29:52;;;;;;;29.77;25.63;;;;;;;20.26;100.00;101643.25;5211206;28;20030;-67
2022/08/24 07:32:23;;;;;;;31.48;24.75;;;;;;;20.60;100.00;101647.84;5208709;28;20053;-67
2022/08/24 07:34:54;;;;;;;27.27;23.92;;;;;;;20.79;100.00;101648.56;5207365;28;20106;-67
2022/08/24 07:37:26;;;;;;;32.05;22.00;;;;;;;20.88;100.00;101644.88;5206090;28;20385;-68
2022/08/24 07:39:57;;;;;;;22.70;19.98;;;;;;;20.99;100.00;101643.72;5206043;28;20029;-67
2022/08/24 07:42:28;;;;;;;25.73;19.60;;;;;;;21.19;100.00;101639.69;5211698;28;20033;-67
2022/08/24 07:44:59;;;;;;;23.15;18.58;;;;;;;21.35;100.00;101638.84;5206688;28;20030;-69
2022/08/24 07:47:31;;;;;;;22.50;17.08;;;;;;;21.53;100.00;101644.13;5205550;28;20045;-67
2022/08/24 07:50:03;;;;;;;21.83;16.60;;;;;;;21.60;100.00;101644.31;5204677;28;20057;-67
2022/08/24 07:52:34;;;;;;;21.42;15.45;;;;;;;21.73;100.00;101636.50;5206469;28;20038;-68
2022/08/24 07:55:06;;;;;;;17.95;15.75;;;;;;;21.89;100.00;101644.59;5202469;28;20026;-68
2022/08/24 07:57:39;;;;;;;18.08;14.95;;;;;;;22.05;100.00;101651.91;5207112;28;20080;-68
2022/08/24 08:00:14;;;;;;;19.57;13.73;;;;;;;22.03;100.00;101647.63;5205817;28;20046;-68
2022/08/24 08:02:46;;;;;;;18.35;13.57;;;;;;;22.16;100.00;101649.81;5209942;28;20438;-68
2022/08/24 08:05:21;;;;;;;15.07;12.93;;;;;;;22.03;100.00;101647.63;5208809;28;20021;-68
2022/08/24 08:07:52;;;;;;;19.17;12.23;;;;;;;22.28;100.00;101646.59;5206410;28;20387;-68
2022/08/24 08:10:24;;;;;;;16.30;10.88;;;;;;;22.25;97.82;101651.53;5209272;28;20034;-68
2022/08/24 08:12:55;;;;;;;16.40;9.82;;;;;;;22.53;93.87;101654.63;5205442;28;20475;-68
2022/08/24 08:15:27;;;;;;;13.57;10.25;;;;;;;22.74;88.76;101659.47;5202648;28;20040;-68
2022/08/24 08:17:58;;;;;;;13.52;9.57;;;;;;;22.83;91.96;101661.13;5202361;28;20033;-68
2022/08/24 08:20:29;;;;;;;15.20;8.93;;;;;;;22.87;92.66;101654.31;5209899;28;20018;-68
2022/08/24 08:25:53;;;;;;;14.95;10.30;;;;;;;23.00;91.33;101664.59;5210151;28;20476;-68
2022/08/24 08:28:25;;;;;;;14.52;9.20;;;;;;;23.10;92.75;101656.25;5207912;28;20034;-68
2022/08/24 08:30:56;;;;;;;16.35;10.98;;;;;;;23.23;86.61;101659.22;5209815;28;20045;-68
2022/08/24 08:33:28;;;;;;;16.10;10.05;;;;;;;23.59;86.21;101653.16;5203684;28;20375;-68
2022/08/24 08:36:04;;;;;;;13.77;8.88;;;;;;;23.75;83.46;101654.03;5210932;28;20479;-68
2022/08/24 08:38:38;;;;;;;14.30;9.23;;;;;;;23.80;81.52;101657.94;5207647;28;20038;-68
2022/08/24 08:41:20;;;;;;;10.27;7.82;;;;;;;23.99;84.75;101655.69;5207667;28;20036;-68
2022/08/24 08:44:00;;;;;;;12.10;8.10;;;;;;;24.07;81.85;101651.00;5198029;28;20314;-68
2022/08/24 08:46:40;;;;;;;13.35;6.72;;;;;;;24.24;84.49;101653.56;5206612;28;20084;-68
2022/08/24 08:49:22;;;;;;;8.82;5.93;;;;;;;24.48;80.04;101654.28;5205402;28;20073;-68
2022/08/24 08:52:13;;;;;;;9.95;6.13;;;;;;;24.24;88.92;101662.59;5206719;28;20440;-68
2022/08/24 08:54:50;;;;;;;9.55;5.97;;;;;;;24.45;84.48;101656.38;5199606;28;20066;-66
2022/08/24 08:57:38;;;;;;;7.63;5.65;;;;;;;24.59;82.62;101657.41;5202217;28;20041;-66
2022/08/24 09:00:48;;;;;;;9.63;5.95;;;;;;;24.79;82.81;101659.53;5205739;28;20030;-66
2022/08/24 09:03:51;;;;;;;10.15;5.50;;;;;;;25.04;82.12;101660.91;5201325;28;20032;-66
2022/08/24 09:06:53;;;;;;;9.40;6.15;;;;;;;25.27;74.61;101661.78;5200201;28;20033;-66
2022/08/24 09:10:01;;;;;;;10.52;6.75;;;;;;;25.34;76.37;101654.50;5206579;28;20042;-66
2022/08/24 09:12:50;;;;;;;7.60;5.65;;;;;;;25.40;74.25;101664.63;5208107;28;20336;-66
2022/08/24 09:15:33;;;;;;;10.63;5.43;;;;;;;25.45;77.73;101667.63;5214237;28;20040;-66
2022/08/24 09:18:16;;;;;;;8.00;4.07;;;;;;;25.48;76.99;101661.75;5204050;28;20034;-66
2022/08/24 09:21:13;;;;;;;7.20;3.57;;;;;;;25.54;75.59;101661.00;5205891;28;20037;-66
2022/08/24 09:23:52;;;;;;;6.78;3.08;;;;;;;25.60;73.46;101662.06;5206450;28;20805;-66
2022/08/24 09:26:28;;;;;;;5.57;2.90;;;;;;;25.44;75.91;101668.66;5209283;28;20050;-66
2022/08/24 09:29:15;;;;;;;4.43;2.40;;;;;;;25.60;73.20;101662.94;5206990;28;20495;-66
2022/08/24 09:32:23;;;;;;;6.97;2.80;;;;;;;25.54;74.66;101663.72;5207515;28;20030;-66
2022/08/24 09:35:00;;;;;;;6.10;2.72;;;;;;;25.72;71.93;101662.41;5206655;28;20086;-66
2022/08/24 09:38:04;;;;;;;4.88;2.83;;;;;;;25.71;71.33;101663.44;5206737;28;20377;-66
2022/08/24 09:41:13;;;;;;;6.63;2.60;;;;;;;25.94;70.98;101669.53;5206088;28;20771;-66
2022/08/24 09:44:03;;;;;;;4.25;2.55;;;;;;;25.92;70.42;101668.03;5208096;28;20038;-66
2022/08/24 09:46:58;;;;;;;6.22;3.15;;;;;;;26.02;73.16;101663.91;5206288;28;20053;-66
2022/08/24 09:49:47;;;;;;;6.07;3.30;;;;;;;25.87;73.08;101668.63;5204702;28;20369;-66
2022/08/24 09:52:56;;;;;;;13.40;3.33;;;;;;;25.95;71.68;101673.97;5207445;28;20034;-66
2022/08/24 09:55:57;;;;;;;5.25;1.92;;;;;;;25.95;71.49;101663.03;5208029;28;20112;-66
2022/08/24 09:58:41;;;;;;;5.40;1.90;;;;;;;26.06;68.73;101664.38;5211007;28;20511;-67
2022/08/24 10:01:36;;;;;;;12.48;2.50;;;;;;;26.26;67.54;101663.66;5215985;28;20045;-66
2022/08/24 10:04:23;;;;;;;5.53;2.10;;;;;;;26.23;67.33;101664.88;5209116;28;20464;-66
2022/08/24 10:07:13;;;;;;;3.70;2.10;;;;;;;26.28;64.76;101665.13;5203609;28;20046;-66
2022/08/24 10:10:22;;;;;;;3.53;1.90;;;;;;;26.26;69.72;101661.75;5210547;28;20403;-66
2022/08/24 10:13:31;;;;;;;6.90;1.98;;;;;;;26.43;67.74;101653.22;5205445;28;20531;-66
2022/08/24 10:16:22;;;;;;;33.17;3.70;;;;;;;26.48;66.82;101657.00;5205731;28;20034;-66
2022/08/24 10:19:10;;;;;;;5.10;2.00;;;;;;;26.59;62.57;101658.34;5210165;28;20124;-66
2022/08/24 10:22:00;;;;;;;2.70;1.67;;;;;;;26.82;62.44;101654.44;5207824;28;20361;-66
2022/08/24 10:24:45;;;;;;;3.03;1.60;;;;;;;26.72;62.27;101649.38;5207276;28;20060;-66
2022/08/24 10:27:50;;;;;;;3.63;1.63;;;;;;;26.62;65.71;101644.28;5204775;28;20041;-66
2022/08/24 10:30:46;;;;;;;6.53;2.10;;;;;;;26.47;66.68;101649.03;5209289;28;20471;-66
2022/08/24 10:33:25;;;;;;;4.63;1.55;;;;;;;26.33;66.06;101643.47;5217409;28;20036;-67
2022/08/24 10:36:02;;;;;;;3.08;1.80;;;;;;;26.31;63.77;101639.25;5217116;28;20131;-66
2022/08/24 10:45:32;;;;;;;4.07;1.85;;;;;;;26.52;66.78;101641.91;5202600;28;20113;-66
2022/08/24 10:48:19;;;;;;;4.55;2.10;;;;;;;26.82;65.35;101640.75;5207103;28;20053;-66
2022/08/24 10:51:07;;;;;;;3.00;1.73;;;;;;;27.04;65.30;101639.56;5206018;28;20029;-66
2022/08/24 10:53:39;;;;;;;4.20;1.70;;;;;;;27.23;59.83;101639.78;5207616;28;20061;-66
2022/08/24 10:56:29;;;;;;;2.60;1.75;;;;;;;27.38;59.51;101637.72;5206591;28;20126;-66
2022/08/24 10:59:15;;;;;;;3.17;1.80;;;;;;;27.69;58.29;101641.72;5204663;28;20231;-66
2022/08/24 11:02:04;;;;;;;4.90;1.80;;;;;;;27.82;61.57;101629.91;5201068;28;20022;-66
2022/08/24 11:04:38;;;;;;;4.43;1.67;;;;;;;27.96;61.68;101631.63;5206480;28;20033;-66
2022/08/24 11:07:18;;;;;;;3.33;1.60;;;;;;;28.02;56.45;101629.91;5203709;28;20026;-66
2022/08/24 11:09:52;;;;;;;3.05;1.95;;;;;;;28.09;55.08;101622.50;5201908;28;20038;-66
2022/08/24 11:12:31;;;;;;;4.25;1.60;;;;;;;28.04;54.36;101625.91;5207720;28;20025;-66
2022/08/24 11:15:25;;;;;;;3.20;2.00;;;;;;;27.92;59.48;101622.97;5208462;28;20832;-66
2022/08/24 11:17:58;;;;;;;3.50;1.70;;;;;;;27.67;60.51;101625.50;5207026;28;20086;-66
2022/08/24 11:20:33;;;;;;;5.43;2.15;;;;;;;27.86;60.13;101618.28;5207432;28;20075;-65
2022/08/24 11:23:13;;;;;;;4.88;2.20;;;;;;;27.82;55.57;101614.28;5206200;28;20033;-66
2022/08/24 11:26:00;;;;;;;4.82;2.20;;;;;;;27.94;54.47;101611.78;5207021;28;20061;-66
2022/08/24 11:28:37;;;;;;;3.45;1.92;;;;;;;28.07;56.08;101619.13;5202484;28;21105;-66
2022/08/24 11:31:21;;;;;;;4.93;1.85;;;;;;;28.03;60.73;101610.47;5203976;28;21156;-66
2022/08/24 11:34:02;;;;;;;5.38;2.00;;;;;;;27.94;58.05;101611.78;5209595;28;20034;-66
2022/08/24 11:36:36;;;;;;;5.18;2.05;;;;;;;28.02;58.42;101607.94;5207256;28;20034;-66
2022/08/24 11:39:12;;;;;;;4.93;2.33;;;;;;;27.78;61.10;101597.41;5203409;28;20066;-66
2022/08/24 11:42:26;;;;;;;3.72;2.17;;;;;;;28.07;60.35;101602.66;5207447;28;20467;-66
2022/08/24 11:45:12;;;;;;;2.70;1.80;;;;;;;28.08;57.77;101604.38;5189963;28;20052;-66
2022/08/24 11:48:00;;;;;;;3.55;1.90;;;;;;;28.18;60.27;101606.66;5206338;28;20280;-66
2022/08/24 11:50:39;;;;;;;5.00;2.00;;;;;;;28.07;60.76;101594.44;5204729;28;20029;-66
2022/08/24 11:53:32;;;;;;;3.95;1.90;;;;;;;28.33;59.57;101596.25;5205546;28;20128;-66
2022/08/24 11:56:21;;;;;;;6.50;2.42;;;;;;;28.32;59.75;101594.56;5207833;28;20078;-66
2022/08/24 11:59:03;;;;;;;2.83;1.90;;;;;;;27.95;59.95;101600.59;5205275;28;20098;-66
2022/08/24 12:01:52;;;;;;;5.65;2.20;;;;;;;28.01;59.61;101601.63;5204074;28;20030;-66
2022/08/24 12:04:38;;;;;;;5.10;1.92;;;;;;;28.13;58.48;101594.44;5205608;28;20025;-67
2022/08/24 12:07:50;;;;;;;4.40;2.03;;;;;;;28.31;57.93;101581.91;5208641;28;20075;-67